Ceuta, España

1:27 AM CET en Noviembre 25, 2014 (GMT +0100)
San Garcia | Change Station
CLOSE
Current Station
Estación meteorológica personal
Location: Algeciras, ANDALUCíA
Altura: 128 ft
Estaciones meteorológicas cercanas

Alt 128 ft 36.11 °N, 5.44 °W | Updated 2 seconds ago

Scattered Clouds
Nubes dispersas
63.5 ° F
Sensación térmica 63.5 ° F
N
2.3
Viento Variable Viento desde Oeste
Gusts 2.3 mph

Hoy
Alta -- | Baja -- ° F
--% Posibilidad de precipitaciones
Ayer
Alta -- | Baja -- ° F
Precip. -- pul
8:07 AM 6:08 PM
Creciente, 8% visible
Presión 30.06 pul
Visibilidad 5.0 Millas
Nubes Nubes dispersas 1600 ft
Punto de rocío 54 ° F
Humedad 72%
Precipitaciones 0.00 pul
Espesor de la nieve No disponible.
UV 0 de una escala de 12
Polen No disponible.
Calidad del aire No disponible.
Flu Activity No disponible.
METAR GMTT 250000Z 00000KT 8000 SCT016 13/11 Q1018 NOSIG

More Conditions Fewer Conditions

Presión 30.06 pul
Visibilidad 5.0 Millas
Nubes Nubes dispersas 1600 ft
Punto de rocío 54 ° F
Humedad 72%
Precipitaciones 0.00 pul
Espesor de la nieve No disponible.
UV 0 de una escala de 12
Polen No disponible.
Calidad del aire No disponible.
Flu Activity No disponible.
METAR GMTT 250000Z 00000KT 8000 SCT016 13/11 Q1018 NOSIG

More Conditions Fewer Conditions

10-Day Weather Forecast

Almanac

Astronomía

Nov. 25, 2014 Salida Puesta
Hora real
Crepúsculo civil
Crepúsculo náutico
Crepúsculo astronómico
Luna
Horas de luz
Horas de luz
Tomorrow will be .
, % of the Moon is Illuminated

Extremos de hoy

Máximos del país Bajas del país

Community

WunderPhotos

Upload Photos

1,773,442 ¡fotos cargadas!

WunderBlogs® & News

Nearby

Calidad del aire

  Calidad del aire Índice AQ Contaminante
Not available.

Grosos de nieve

Estación Profundido Altura

Actividad de terremotos

Ciudad Distance Mag. Tiempo y dato
Magnitud mínima muestra es 2,5.

Temperaturas de aguas costeras

Lugar Temperatura

Estaciones meteorológicas cercanas